sensor_id;sensor_type;location;lat;lon;timestamp;temperature;humidity
18581;DHT22;9420;50.876;7.012;2022-07-23T00:00:23;20.10;99.90
18581;DHT22;9420;50.876;7.012;2022-07-23T00:02:51;20.10;99.90
18581;DHT22;9420;50.876;7.012;2022-07-23T00:05:18;20.00;99.90
18581;DHT22;9420;50.876;7.012;2022-07-23T00:07:45;19.90;99.90
18581;DHT22;9420;50.876;7.012;2022-07-23T00:10:12;19.80;99.90
18581;DHT22;9420;50.876;7.012;2022-07-23T00:12:41;19.80;99.90
18581;DHT22;9420;50.876;7.012;2022-07-23T00:15:09;19.80;99.90
18581;DHT22;9420;50.876;7.012;2022-07-23T00:17:36;19.70;99.90
18581;DHT22;9420;50.876;7.012;2022-07-23T00:20:05;19.70;99.90
18581;DHT22;9420;50.876;7.012;2022-07-23T00:22:33;19.60;99.90
18581;DHT22;9420;50.876;7.012;2022-07-23T00:25:00;19.60;99.90
18581;DHT22;9420;50.876;7.012;2022-07-23T00:27:27;19.60;99.90
18581;DHT22;9420;50.876;7.012;2022-07-23T00:29:55;19.60;99.90
18581;DHT22;9420;50.876;7.012;2022-07-23T00:32:22;19.50;99.90
18581;DHT22;9420;50.876;7.012;2022-07-23T00:34:50;19.40;99.90
18581;DHT22;9420;50.876;7.012;2022-07-23T00:37:17;19.40;99.90
18581;DHT22;9420;50.876;7.012;2022-07-23T00:39:44;19.30;99.90
18581;DHT22;9420;50.876;7.012;2022-07-23T00:42:10;19.40;99.90
18581;DHT22;9420;50.876;7.012;2022-07-23T00:44:37;19.40;99.90
18581;DHT22;9420;50.876;7.012;2022-07-23T00:47:06;19.30;99.90
18581;DHT22;9420;50.876;7.012;2022-07-23T00:49:33;19.20;99.90
18581;DHT22;9420;50.876;7.012;2022-07-23T00:52:02;19.30;99.90
18581;DHT22;9420;50.876;7.012;2022-07-23T00:54:31;19.30;99.90
18581;DHT22;9420;50.876;7.012;2022-07-23T00:56:59;19.30;99.90
18581;DHT22;9420;50.876;7.012;2022-07-23T00:59:26;19.30;99.90
18581;DHT22;9420;50.876;7.012;2022-07-23T01:01:53;19.30;99.90
18581;DHT22;9420;50.876;7.012;2022-07-23T01:04:22;19.20;99.90
18581;DHT22;9420;50.876;7.012;2022-07-23T01:06:49;19.00;99.90
18581;DHT22;9420;50.876;7.012;2022-07-23T01:09:17;18.90;99.90
18581;DHT22;9420;50.876;7.012;2022-07-23T01:11:44;18.80;99.90
18581;DHT22;9420;50.876;7.012;2022-07-23T01:14:13;18.70;99.90
18581;DHT22;9420;50.876;7.012;2022-07-23T01:16:42;18.70;99.90
18581;DHT22;9420;50.876;7.012;2022-07-23T01:19:12;18.80;99.90
18581;DHT22;9420;50.876;7.012;2022-07-23T01:21:42;18.70;99.90
18581;DHT22;9420;50.876;7.012;2022-07-23T01:24:13;18.80;99.90
18581;DHT22;9420;50.876;7.012;2022-07-23T01:26:43;18.80;99.90
18581;DHT22;9420;50.876;7.012;2022-07-23T01:29:12;18.80;99.90
18581;DHT22;9420;50.876;7.012;2022-07-23T01:31:39;18.80;99.90
18581;DHT22;9420;50.876;7.012;2022-07-23T01:34:07;18.80;99.90
18581;DHT22;9420;50.876;7.012;2022-07-23T01:36:34;18.80;99.90
18581;DHT22;9420;50.876;7.012;2022-07-23T01:39:03;18.80;99.90
18581;DHT22;9420;50.876;7.012;2022-07-23T01:41:32;18.70;99.90
18581;DHT22;9420;50.876;7.012;2022-07-23T01:44:00;18.60;99.90
18581;DHT22;9420;50.876;7.012;2022-07-23T01:46:27;18.70;99.90
18581;DHT22;9420;50.876;7.012;2022-07-23T01:48:54;18.70;99.90
18581;DHT22;9420;50.876;7.012;2022-07-23T01:51:22;18.60;99.90
18581;DHT22;9420;50.876;7.012;2022-07-23T01:53:49;18.60;99.90
18581;DHT22;9420;50.876;7.012;2022-07-23T01:56:16;18.60;99.90
18581;DHT22;9420;50.876;7.012;2022-07-23T01:58:47;18.50;99.90
18581;DHT22;9420;50.876;7.012;2022-07-23T02:01:15;18.30;99.90
18581;DHT22;9420;50.876;7.012;2022-07-23T02:03:43;18.30;99.90
18581;DHT22;9420;50.876;7.012;2022-07-23T02:06:10;18.30;99.90
18581;DHT22;9420;50.876;7.012;2022-07-23T02:08:37;18.20;99.90
18581;DHT22;9420;50.876;7.012;2022-07-23T02:11:04;18.20;99.90
18581;DHT22;9420;50.876;7.012;2022-07-23T02:13:31;18.20;99.90
18581;DHT22;9420;50.876;7.012;2022-07-23T02:16:00;18.10;99.90
18581;DHT22;9420;50.876;7.012;2022-07-23T02:18:27;18.00;99.90
18581;DHT22;9420;50.876;7.012;2022-07-23T02:20:54;17.90;99.90
18581;DHT22;9420;50.876;7.012;2022-07-23T02:23:21;17.90;99.90
18581;DHT22;9420;50.876;7.012;2022-07-23T02:25:50;17.90;99.90
18581;DHT22;9420;50.876;7.012;2022-07-23T02:28:17;17.80;99.90
18581;DHT22;9420;50.876;7.012;2022-07-23T02:30:45;17.80;99.90
18581;DHT22;9420;50.876;7.012;2022-07-23T02:33:13;17.70;99.90
18581;DHT22;9420;50.876;7.012;2022-07-23T02:35:40;17.70;99.90
18581;DHT22;9420;50.876;7.012;2022-07-23T02:38:15;17.60;99.90
18581;DHT22;9420;50.876;7.012;2022-07-23T02:40:42;17.60;99.90
18581;DHT22;9420;50.876;7.012;2022-07-23T02:43:09;17.60;99.90
18581;DHT22;9420;50.876;7.012;2022-07-23T02:45:36;17.50;99.90
18581;DHT22;9420;50.876;7.012;2022-07-23T02:48:04;17.50;99.90
18581;DHT22;9420;50.876;7.012;2022-07-23T02:50:32;17.40;99.90
18581;DHT22;9420;50.876;7.012;2022-07-23T02:52:59;17.40;99.90
18581;DHT22;9420;50.876;7.012;2022-07-23T02:55:26;17.50;99.90
18581;DHT22;9420;50.876;7.012;2022-07-23T02:57:53;17.40;99.90
18581;DHT22;9420;50.876;7.012;2022-07-23T03:00:20;17.40;99.90
18581;DHT22;9420;50.876;7.012;2022-07-23T03:02:47;17.30;99.90
18581;DHT22;9420;50.876;7.012;2022-07-23T03:05:15;17.30;99.90
18581;DHT22;9420;50.876;7.012;2022-07-23T03:07:43;17.20;99.90
18581;DHT22;9420;50.876;7.012;2022-07-23T03:10:10;17.30;99.90
18581;DHT22;9420;50.876;7.012;2022-07-23T03:12:37;17.20;99.90
18581;DHT22;9420;50.876;7.012;2022-07-23T03:15:05;17.20;99.90
18581;DHT22;9420;50.876;7.012;2022-07-23T03:17:33;17.30;99.90
18581;DHT22;9420;50.876;7.012;2022-07-23T03:20:00;17.30;99.90
18581;DHT22;9420;50.876;7.012;2022-07-23T03:22:27;17.30;99.90
18581;DHT22;9420;50.876;7.012;2022-07-23T03:24:56;17.30;99.90
18581;DHT22;9420;50.876;7.012;2022-07-23T03:27:24;17.30;99.90
18581;DHT22;9420;50.876;7.012;2022-07-23T03:29:53;17.20;99.90
18581;DHT22;9420;50.876;7.012;2022-07-23T03:32:24;17.20;99.90
18581;DHT22;9420;50.876;7.012;2022-07-23T03:34:51;17.30;99.90
18581;DHT22;9420;50.876;7.012;2022-07-23T03:37:20;17.30;99.90
18581;DHT22;9420;50.876;7.012;2022-07-23T03:39:47;17.30;99.90
18581;DHT22;9420;50.876;7.012;2022-07-23T03:42:15;17.20;99.90
18581;DHT22;9420;50.876;7.012;2022-07-23T03:44:42;17.10;99.90
18581;DHT22;9420;50.876;7.012;2022-07-23T03:47:09;17.10;99.90
18581;DHT22;9420;50.876;7.012;2022-07-23T03:49:36;17.10;99.90
18581;DHT22;9420;50.876;7.012;2022-07-23T03:52:04;17.10;99.90
18581;DHT22;9420;50.876;7.012;2022-07-23T03:54:31;17.00;99.90
18581;DHT22;9420;50.876;7.012;2022-07-23T03:56:58;17.00;99.90
18581;DHT22;9420;50.876;7.012;2022-07-23T03:59:27;16.90;99.90
18581;DHT22;9420;50.876;7.012;2022-07-23T04:01:54;16.90;99.90
18581;DHT22;9420;50.876;7.012;2022-07-23T04:04:21;16.90;99.90
18581;DHT22;9420;50.876;7.012;2022-07-23T04:06:48;16.80;99.90
18581;DHT22;9420;50.876;7.012;2022-07-23T04:09:15;16.70;99.90
18581;DHT22;9420;50.876;7.012;2022-07-23T04:11:42;16.70;99.90
18581;DHT22;9420;50.876;7.012;2022-07-23T04:14:09;16.70;99.90
18581;DHT22;9420;50.876;7.012;2022-07-23T04:16:37;16.60;99.90
18581;DHT22;9420;50.876;7.012;2022-07-23T04:19:04;16.60;99.90
18581;DHT22;9420;50.876;7.012;2022-07-23T04:21:32;16.60;99.90
18581;DHT22;9420;50.876;7.012;2022-07-23T04:23:59;16.60;99.90
18581;DHT22;9420;50.876;7.012;2022-07-23T04:26:26;16.60;99.90
18581;DHT22;9420;50.876;7.012;2022-07-23T04:28:53;16.60;99.90
18581;DHT22;9420;50.876;7.012;2022-07-23T04:31:20;16.50;99.90
18581;DHT22;9420;50.876;7.012;2022-07-23T04:33:48;16.60;99.90
18581;DHT22;9420;50.876;7.012;2022-07-23T04:36:16;16.50;99.90
18581;DHT22;9420;50.876;7.012;2022-07-23T04:38:43;16.50;99.90
18581;DHT22;9420;50.876;7.012;2022-07-23T04:41:11;16.50;99.90
18581;DHT22;9420;50.876;7.012;2022-07-23T04:43:38;16.50;99.90
18581;DHT22;9420;50.876;7.012;2022-07-23T04:46:05;16.50;99.90
18581;DHT22;9420;50.876;7.012;2022-07-23T04:48:32;16.50;99.90
18581;DHT22;9420;50.876;7.012;2022-07-23T04:51:00;16.60;99.90
18581;DHT22;9420;50.876;7.012;2022-07-23T04:53:28;16.50;99.90
18581;DHT22;9420;50.876;7.012;2022-07-23T04:55:55;16.60;99.90
18581;DHT22;9420;50.876;7.012;2022-07-23T04:58:22;16.50;99.90
18581;DHT22;9420;50.876;7.012;2022-07-23T05:00:49;16.50;99.90
18581;DHT22;9420;50.876;7.012;2022-07-23T05:03:18;16.50;99.90
18581;DHT22;9420;50.876;7.012;2022-07-23T05:05:45;16.50;99.90
18581;DHT22;9420;50.876;7.012;2022-07-23T05:08:13;16.50;99.90
18581;DHT22;9420;50.876;7.012;2022-07-23T05:10:40;16.60;99.90
18581;DHT22;9420;50.876;7.012;2022-07-23T05:13:09;16.60;99.90
18581;DHT22;9420;50.876;7.012;2022-07-23T05:15:36;16.60;99.90
18581;DHT22;9420;50.876;7.012;2022-07-23T05:18:03;16.70;99.90
18581;DHT22;9420;50.876;7.012;2022-07-23T05:20:30;16.70;99.90
18581;DHT22;9420;50.876;7.012;2022-07-23T05:22:57;16.70;99.90
18581;DHT22;9420;50.876;7.012;2022-07-23T05:25:26;16.90;99.90
18581;DHT22;9420;50.876;7.012;2022-07-23T05:27:53;16.90;99.90
18581;DHT22;9420;50.876;7.012;2022-07-23T05:30:20;16.90;99.90
18581;DHT22;9420;50.876;7.012;2022-07-23T05:32:48;17.00;99.90
18581;DHT22;9420;50.876;7.012;2022-07-23T05:35:15;17.00;99.90
18581;DHT22;9420;50.876;7.012;2022-07-23T05:37:42;17.10;99.90
18581;DHT22;9420;50.876;7.012;2022-07-23T05:40:10;17.20;99.90
18581;DHT22;9420;50.876;7.012;2022-07-23T05:42:40;17.10;99.90
18581;DHT22;9420;50.876;7.012;2022-07-23T05:45:09;17.20;99.90
18581;DHT22;9420;50.876;7.012;2022-07-23T05:47:44;17.30;99.90
18581;DHT22;9420;50.876;7.012;2022-07-23T05:50:13;17.30;99.90
18581;DHT22;9420;50.876;7.012;2022-07-23T05:52:40;17.30;99.90
18581;DHT22;9420;50.876;7.012;2022-07-23T05:55:09;17.30;99.90
18581;DHT22;9420;50.876;7.012;2022-07-23T05:57:39;17.40;99.90
18581;DHT22;9420;50.876;7.012;2022-07-23T06:00:08;17.50;99.90
18581;DHT22;9420;50.876;7.012;2022-07-23T06:02:37;17.50;99.90
18581;DHT22;9420;50.876;7.012;2022-07-23T06:05:06;17.60;99.90
18581;DHT22;9420;50.876;7.012;2022-07-23T06:07:34;17.70;99.90
18581;DHT22;9420;50.876;7.012;2022-07-23T06:10:02;17.80;99.90
18581;DHT22;9420;50.876;7.012;2022-07-23T06:12:30;17.80;99.90
18581;DHT22;9420;50.876;7.012;2022-07-23T06:14:59;17.90;99.90
18581;DHT22;9420;50.876;7.012;2022-07-23T06:17:27;17.90;99.90
18581;DHT22;9420;50.876;7.012;2022-07-23T06:19:54;17.80;99.90
18581;DHT22;9420;50.876;7.012;2022-07-23T06:22:22;17.80;99.90
18581;DHT22;9420;50.876;7.012;2022-07-23T06:24:49;17.80;99.90
18581;DHT22;9420;50.876;7.012;2022-07-23T06:27:18;17.80;99.90
18581;DHT22;9420;50.876;7.012;2022-07-23T06:29:45;17.80;99.90
18581;DHT22;9420;50.876;7.012;2022-07-23T06:32:13;18.00;99.90
18581;DHT22;9420;50.876;7.012;2022-07-23T06:34:40;17.90;99.90
18581;DHT22;9420;50.876;7.012;2022-07-23T06:37:08;18.00;99.90
18581;DHT22;9420;50.876;7.012;2022-07-23T06:39:35;18.10;99.90
18581;DHT22;9420;50.876;7.012;2022-07-23T06:42:02;18.30;99.90
18581;DHT22;9420;50.876;7.012;2022-07-23T06:44:29;18.30;99.90
18581;DHT22;9420;50.876;7.012;2022-07-23T06:46:57;18.40;99.90
18581;DHT22;9420;50.876;7.012;2022-07-23T06:49:25;18.30;99.90
18581;DHT22;9420;50.876;7.012;2022-07-23T06:51:52;18.30;99.90
18581;DHT22;9420;50.876;7.012;2022-07-23T06:54:19;18.30;99.90
18581;DHT22;9420;50.876;7.012;2022-07-23T06:56:47;18.30;99.90
18581;DHT22;9420;50.876;7.012;2022-07-23T06:59:14;18.30;99.90
18581;DHT22;9420;50.876;7.012;2022-07-23T07:01:41;18.30;99.90
18581;DHT22;9420;50.876;7.012;2022-07-23T07:04:08;18.40;99.90
18581;DHT22;9420;50.876;7.012;2022-07-23T07:06:36;18.70;99.90
18581;DHT22;9420;50.876;7.012;2022-07-23T07:09:03;18.80;99.90
18581;DHT22;9420;50.876;7.012;2022-07-23T07:11:31;19.10;99.90
18581;DHT22;9420;50.876;7.012;2022-07-23T07:13:58;19.30;99.90
18581;DHT22;9420;50.876;7.012;2022-07-23T07:16:25;19.40;99.90
18581;DHT22;9420;50.876;7.012;2022-07-23T07:18:52;19.60;99.90
18581;DHT22;9420;50.876;7.012;2022-07-23T07:21:19;19.80;99.90
18581;DHT22;9420;50.876;7.012;2022-07-23T07:23:47;20.00;99.90
18581;DHT22;9420;50.876;7.012;2022-07-23T07:26:14;20.10;99.90
18581;DHT22;9420;50.876;7.012;2022-07-23T07:28:42;20.00;99.90
18581;DHT22;9420;50.876;7.012;2022-07-23T07:31:09;20.30;99.90
18581;DHT22;9420;50.876;7.012;2022-07-23T07:33:36;20.60;99.90
18581;DHT22;9420;50.876;7.012;2022-07-23T07:36:04;20.60;99.90
18581;DHT22;9420;50.876;7.012;2022-07-23T07:38:31;20.60;99.90
18581;DHT22;9420;50.876;7.012;2022-07-23T07:41:00;20.60;99.90
18581;DHT22;9420;50.876;7.012;2022-07-23T07:43:27;20.50;99.90
18581;DHT22;9420;50.876;7.012;2022-07-23T07:45:54;20.60;99.90
18581;DHT22;9420;50.876;7.012;2022-07-23T07:48:21;20.60;99.90
18581;DHT22;9420;50.876;7.012;2022-07-23T07:50:48;20.70;99.90
18581;DHT22;9420;50.876;7.012;2022-07-23T07:53:15;20.90;99.90
18581;DHT22;9420;50.876;7.012;2022-07-23T07:55:42;20.80;99.90
18581;DHT22;9420;50.876;7.012;2022-07-23T07:58:11;20.80;99.90
18581;DHT22;9420;50.876;7.012;2022-07-23T08:00:38;20.90;99.90
18581;DHT22;9420;50.876;7.012;2022-07-23T08:03:05;21.00;99.90
18581;DHT22;9420;50.876;7.012;2022-07-23T08:05:32;21.10;99.90
18581;DHT22;9420;50.876;7.012;2022-07-23T08:07:59;21.30;99.90
18581;DHT22;9420;50.876;7.012;2022-07-23T08:10:27;21.30;99.90
18581;DHT22;9420;50.876;7.012;2022-07-23T08:12:57;21.40;99.90
18581;DHT22;9420;50.876;7.012;2022-07-23T08:15:29;21.70;99.90
18581;DHT22;9420;50.876;7.012;2022-07-23T08:17:57;21.70;99.90
18581;DHT22;9420;50.876;7.012;2022-07-23T08:20:26;21.90;99.90
18581;DHT22;9420;50.876;7.012;2022-07-23T08:22:54;22.10;99.90
18581;DHT22;9420;50.876;7.012;2022-07-23T08:25:24;22.30;99.90
18581;DHT22;9420;50.876;7.012;2022-07-23T08:27:53;22.50;99.90
18581;DHT22;9420;50.876;7.012;2022-07-23T08:30:21;22.50;99.90
18581;DHT22;9420;50.876;7.012;2022-07-23T08:32:52;22.80;99.90
18581;DHT22;9420;50.876;7.012;2022-07-23T08:35:25;22.90;99.90
18581;DHT22;9420;50.876;7.012;2022-07-23T08:37:54;22.60;99.90
18581;DHT22;9420;50.876;7.012;2022-07-23T08:40:22;21.80;99.90
18581;DHT22;9420;50.876;7.012;2022-07-23T08:42:52;21.60;99.90
18581;DHT22;9420;50.876;7.012;2022-07-23T08:45:20;21.90;99.90
18581;DHT22;9420;50.876;7.012;2022-07-23T08:47:52;22.20;99.90
18581;DHT22;9420;50.876;7.012;2022-07-23T08:50:21;21.70;99.90
18581;DHT22;9420;50.876;7.012;2022-07-23T08:52:51;21.80;99.90
18581;DHT22;9420;50.876;7.012;2022-07-23T08:55:21;22.30;99.90
18581;DHT22;9420;50.876;7.012;2022-07-23T08:57:51;22.70;99.90
18581;DHT22;9420;50.876;7.012;2022-07-23T09:00:21;23.10;99.90
18581;DHT22;9420;50.876;7.012;2022-07-23T09:02:50;23.30;99.90
18581;DHT22;9420;50.876;7.012;2022-07-23T09:05:18;23.40;99.90
18581;DHT22;9420;50.876;7.012;2022-07-23T09:08:04;23.40;99.90
18581;DHT22;9420;50.876;7.012;2022-07-23T09:10:46;23.60;99.90
18581;DHT22;9420;50.876;7.012;2022-07-23T09:13:28;23.80;99.90
18581;DHT22;9420;50.876;7.012;2022-07-23T09:15:59;23.70;99.90
18581;DHT22;9420;50.876;7.012;2022-07-23T09:18:43;23.40;99.90
18581;DHT22;9420;50.876;7.012;2022-07-23T09:21:19;23.40;99.90
18581;DHT22;9420;50.876;7.012;2022-07-23T09:23:50;23.30;99.90
18581;DHT22;9420;50.876;7.012;2022-07-23T09:26:22;23.40;99.90
18581;DHT22;9420;50.876;7.012;2022-07-23T09:28:58;23.00;99.90
18581;DHT22;9420;50.876;7.012;2022-07-23T09:31:33;23.00;99.90
18581;DHT22;9420;50.876;7.012;2022-07-23T09:34:11;23.50;99.90
18581;DHT22;9420;50.876;7.012;2022-07-23T09:36:41;23.60;99.90
18581;DHT22;9420;50.876;7.012;2022-07-23T09:39:09;23.40;99.90
18581;DHT22;9420;50.876;7.012;2022-07-23T09:41:40;23.70;99.90
18581;DHT22;9420;50.876;7.012;2022-07-23T09:44:14;23.80;99.90
18581;DHT22;9420;50.876;7.012;2022-07-23T09:46:43;23.60;99.90
18581;DHT22;9420;50.876;7.012;2022-07-23T09:49:22;23.70;99.90
18581;DHT22;9420;50.876;7.012;2022-07-23T09:51:55;24.00;99.90
18581;DHT22;9420;50.876;7.012;2022-07-23T09:54:32;24.20;99.90
18581;DHT22;9420;50.876;7.012;2022-07-23T09:57:04;24.40;99.90
18581;DHT22;9420;50.876;7.012;2022-07-23T09:59:35;24.70;99.90
18581;DHT22;9420;50.876;7.012;2022-07-23T10:02:05;24.30;99.90
18581;DHT22;9420;50.876;7.012;2022-07-23T10:04:36;24.30;99.90
18581;DHT22;9420;50.876;7.012;2022-07-23T10:07:04;24.10;99.90
18581;DHT22;9420;50.876;7.012;2022-07-23T10:09:35;24.10;99.90
18581;DHT22;9420;50.876;7.012;2022-07-23T10:12:05;24.40;99.90
18581;DHT22;9420;50.876;7.012;2022-07-23T10:14:47;24.50;99.90
18581;DHT22;9420;50.876;7.012;2022-07-23T10:17:15;24.60;99.90
18581;DHT22;9420;50.876;7.012;2022-07-23T10:19:44;25.30;99.90
18581;DHT22;9420;50.876;7.012;2022-07-23T10:22:14;25.80;99.90
18581;DHT22;9420;50.876;7.012;2022-07-23T10:24:53;26.10;99.90
18581;DHT22;9420;50.876;7.012;2022-07-23T10:30:55;26.10;99.90
18581;DHT22;9420;50.876;7.012;2022-07-23T10:33:39;26.10;99.90
18581;DHT22;9420;50.876;7.012;2022-07-23T10:36:20;26.60;99.90
18581;DHT22;9420;50.876;7.012;2022-07-23T10:38:58;26.60;99.90
18581;DHT22;9420;50.876;7.012;2022-07-23T10:41:32;26.80;99.90
18581;DHT22;9420;50.876;7.012;2022-07-23T10:44:09;26.80;99.90
18581;DHT22;9420;50.876;7.012;2022-07-23T10:46:56;27.10;99.90
18581;DHT22;9420;50.876;7.012;2022-07-23T10:49:36;26.70;99.90
18581;DHT22;9420;50.876;7.012;2022-07-23T10:52:22;26.50;99.90
18581;DHT22;9420;50.876;7.012;2022-07-23T10:58:07;27.50;99.90
18581;DHT22;9420;50.876;7.012;2022-07-23T11:00:35;27.60;99.90
18581;DHT22;9420;50.876;7.012;2022-07-23T11:03:05;27.60;99.90
18581;DHT22;9420;50.876;7.012;2022-07-23T11:05:48;27.40;99.90
18581;DHT22;9420;50.876;7.012;2022-07-23T11:08:18;27.70;99.90
18581;DHT22;9420;50.876;7.012;2022-07-23T11:10:51;28.10;99.90
18581;DHT22;9420;50.876;7.012;2022-07-23T11:13:46;28.30;99.90
18581;DHT22;9420;50.876;7.012;2022-07-23T11:16:23;28.00;99.90
18581;DHT22;9420;50.876;7.012;2022-07-23T11:19:09;27.90;99.90
18581;DHT22;9420;50.876;7.012;2022-07-23T11:22:00;28.30;99.90
18581;DHT22;9420;50.876;7.012;2022-07-23T11:24:28;29.20;99.90
18581;DHT22;9420;50.876;7.012;2022-07-23T11:27:01;29.10;99.90
18581;DHT22;9420;50.876;7.012;2022-07-23T11:29:46;29.40;99.90
18581;DHT22;9420;50.876;7.012;2022-07-23T11:32:34;28.70;99.90
18581;DHT22;9420;50.876;7.012;2022-07-23T11:35:22;29.30;99.90
18581;DHT22;9420;50.876;7.012;2022-07-23T11:37:56;29.30;99.90
18581;DHT22;9420;50.876;7.012;2022-07-23T11:40:32;29.20;99.90
18581;DHT22;9420;50.876;7.012;2022-07-23T11:43:01;30.10;99.90
18581;DHT22;9420;50.876;7.012;2022-07-23T11:45:32;30.60;96.40
18581;DHT22;9420;50.876;7.012;2022-07-23T11:48:02;30.00;98.00
18581;DHT22;9420;50.876;7.012;2022-07-23T11:50:30;30.40;99.90
18581;DHT22;9420;50.876;7.012;2022-07-23T11:52:57;31.10;99.90
18581;DHT22;9420;50.876;7.012;2022-07-23T11:55:25;31.40;96.90
18581;DHT22;9420;50.876;7.012;2022-07-23T11:57:55;31.70;96.70
18581;DHT22;9420;50.876;7.012;2022-07-23T12:00:26;32.10;97.90
18581;DHT22;9420;50.876;7.012;2022-07-23T12:02:57;31.90;96.60
18581;DHT22;9420;50.876;7.012;2022-07-23T12:05:28;31.50;94.80
18581;DHT22;9420;50.876;7.012;2022-07-23T12:07:58;31.00;95.90
18581;DHT22;9420;50.876;7.012;2022-07-23T12:10:28;31.50;95.60
18581;DHT22;9420;50.876;7.012;2022-07-23T12:13:03;32.20;96.00
18581;DHT22;9420;50.876;7.012;2022-07-23T12:15:33;31.50;96.00
18581;DHT22;9420;50.876;7.012;2022-07-23T12:18:04;31.80;94.80
18581;DHT22;9420;50.876;7.012;2022-07-23T12:20:34;31.80;94.60
18581;DHT22;9420;50.876;7.012;2022-07-23T12:23:05;31.60;94.00
18581;DHT22;9420;50.876;7.012;2022-07-23T12:25:35;31.70;96.40
18581;DHT22;9420;50.876;7.012;2022-07-23T12:28:06;32.30;92.20
18581;DHT22;9420;50.876;7.012;2022-07-23T12:30:39;32.80;91.70
18581;DHT22;9420;50.876;7.012;2022-07-23T12:33:09;32.70;90.70
18581;DHT22;9420;50.876;7.012;2022-07-23T12:35:38;31.50;90.20
18581;DHT22;9420;50.876;7.012;2022-07-23T12:38:08;31.90;92.00
18581;DHT22;9420;50.876;7.012;2022-07-23T12:40:42;32.50;88.20
18581;DHT22;9420;50.876;7.012;2022-07-23T12:43:19;32.90;89.00
18581;DHT22;9420;50.876;7.012;2022-07-23T12:45:48;33.50;82.10
18581;DHT22;9420;50.876;7.012;2022-07-23T12:48:21;34.00;81.60
18581;DHT22;9420;50.876;7.012;2022-07-23T12:50:52;32.70;82.70
18581;DHT22;9420;50.876;7.012;2022-07-23T12:53:23;32.20;84.00
18581;DHT22;9420;50.876;7.012;2022-07-23T12:55:58;32.50;83.70
18581;DHT22;9420;50.876;7.012;2022-07-23T12:58:40;32.60;83.80
18581;DHT22;9420;50.876;7.012;2022-07-23T13:01:09;32.40;82.80
18581;DHT22;9420;50.876;7.012;2022-07-23T13:03:56;32.00;81.00
18581;DHT22;9420;50.876;7.012;2022-07-23T13:06:25;31.90;80.50
18581;DHT22;9420;50.876;7.012;2022-07-23T13:08:53;32.90;79.80
18581;DHT22;9420;50.876;7.012;2022-07-23T13:11:20;33.30;77.10
18581;DHT22;9420;50.876;7.012;2022-07-23T13:13:51;34.10;75.00
18581;DHT22;9420;50.876;7.012;2022-07-23T13:16:18;34.30;74.70
18581;DHT22;9420;50.876;7.012;2022-07-23T13:18:46;34.60;71.60
18581;DHT22;9420;50.876;7.012;2022-07-23T13:21:13;34.90;72.60
18581;DHT22;9420;50.876;7.012;2022-07-23T13:23:42;34.90;76.60
18581;DHT22;9420;50.876;7.012;2022-07-23T13:26:09;33.90;73.30
18581;DHT22;9420;50.876;7.012;2022-07-23T13:28:36;33.20;74.10
18581;DHT22;9420;50.876;7.012;2022-07-23T13:31:05;32.40;72.10
18581;DHT22;9420;50.876;7.012;2022-07-23T13:33:33;32.30;75.60
18581;DHT22;9420;50.876;7.012;2022-07-23T13:36:00;32.70;75.40
18581;DHT22;9420;50.876;7.012;2022-07-23T13:38:28;31.90;75.70
18581;DHT22;9420;50.876;7.012;2022-07-23T13:40:55;32.90;76.60
18581;DHT22;9420;50.876;7.012;2022-07-23T13:43:24;34.10;75.30
18581;DHT22;9420;50.876;7.012;2022-07-23T13:45:52;34.40;74.70
18581;DHT22;9420;50.876;7.012;2022-07-23T13:48:21;34.40;73.40
18581;DHT22;9420;50.876;7.012;2022-07-23T13:50:49;32.90;76.90
18581;DHT22;9420;50.876;7.012;2022-07-23T13:53:19;33.60;73.20
18581;DHT22;9420;50.876;7.012;2022-07-23T13:55:49;34.30;78.90
18581;DHT22;9420;50.876;7.012;2022-07-23T13:58:18;33.60;69.80
18581;DHT22;9420;50.876;7.012;2022-07-23T14:00:47;34.10;72.40
18581;DHT22;9420;50.876;7.012;2022-07-23T14:03:16;34.70;72.10
18581;DHT22;9420;50.876;7.012;2022-07-23T14:05:45;34.30;72.20
18581;DHT22;9420;50.876;7.012;2022-07-23T14:08:12;34.00;68.30
18581;DHT22;9420;50.876;7.012;2022-07-23T14:10:39;32.90;72.20
18581;DHT22;9420;50.876;7.012;2022-07-23T14:13:06;33.10;70.60
18581;DHT22;9420;50.876;7.012;2022-07-23T14:15:33;33.50;74.50
18581;DHT22;9420;50.876;7.012;2022-07-23T14:18:00;33.80;67.90
18581;DHT22;9420;50.876;7.012;2022-07-23T14:20:28;33.30;69.30
18581;DHT22;9420;50.876;7.012;2022-07-23T14:22:56;33.60;72.00
18581;DHT22;9420;50.876;7.012;2022-07-23T14:25:26;33.70;68.70
18581;DHT22;9420;50.876;7.012;2022-07-23T14:27:53;34.30;68.10
18581;DHT22;9420;50.876;7.012;2022-07-23T14:30:20;34.60;67.70
18581;DHT22;9420;50.876;7.012;2022-07-23T14:32:49;35.30;65.00
18581;DHT22;9420;50.876;7.012;2022-07-23T14:35:16;35.20;66.30
18581;DHT22;9420;50.876;7.012;2022-07-23T14:37:44;35.30;68.30
18581;DHT22;9420;50.876;7.012;2022-07-23T14:40:13;35.60;65.20
18581;DHT22;9420;50.876;7.012;2022-07-23T14:42:40;36.20;64.50
18581;DHT22;9420;50.876;7.012;2022-07-23T14:45:09;36.30;64.50
18581;DHT22;9420;50.876;7.012;2022-07-23T14:47:36;34.80;62.40
18581;DHT22;9420;50.876;7.012;2022-07-23T14:50:05;34.10;65.20
18581;DHT22;9420;50.876;7.012;2022-07-23T14:52:33;34.40;63.70
18581;DHT22;9420;50.876;7.012;2022-07-23T14:55:01;34.50;66.70
18581;DHT22;9420;50.876;7.012;2022-07-23T14:57:29;34.40;67.90
18581;DHT22;9420;50.876;7.012;2022-07-23T14:59:56;35.10;63.50
18581;DHT22;9420;50.876;7.012;2022-07-23T15:02:23;34.50;63.20
18581;DHT22;9420;50.876;7.012;2022-07-23T15:04:50;34.10;64.30
18581;DHT22;9420;50.876;7.012;2022-07-23T15:07:19;35.20;64.70
18581;DHT22;9420;50.876;7.012;2022-07-23T15:09:46;36.10;63.50
18581;DHT22;9420;50.876;7.012;2022-07-23T15:12:14;36.50;60.80
18581;DHT22;9420;50.876;7.012;2022-07-23T15:14:43;36.70;58.90
18581;DHT22;9420;50.876;7.012;2022-07-23T15:17:10;36.30;61.60
18581;DHT22;9420;50.876;7.012;2022-07-23T15:19:37;36.60;57.70
18581;DHT22;9420;50.876;7.012;2022-07-23T15:22:04;36.00;59.40
18581;DHT22;9420;50.876;7.012;2022-07-23T15:24:31;35.70;60.00
18581;DHT22;9420;50.876;7.012;2022-07-23T15:26:59;35.70;58.60
18581;DHT22;9420;50.876;7.012;2022-07-23T15:29:26;34.60;60.60
18581;DHT22;9420;50.876;7.012;2022-07-23T15:31:55;33.50;61.90
18581;DHT22;9420;50.876;7.012;2022-07-23T15:34:22;33.00;63.50
18581;DHT22;9420;50.876;7.012;2022-07-23T15:36:49;32.60;65.50
18581;DHT22;9420;50.876;7.012;2022-07-23T15:39:16;33.40;66.00
18581;DHT22;9420;50.876;7.012;2022-07-23T15:41:43;33.40;65.50
18581;DHT22;9420;50.876;7.012;2022-07-23T15:44:10;32.80;64.10
18581;DHT22;9420;50.876;7.012;2022-07-23T15:46:37;32.50;64.40
18581;DHT22;9420;50.876;7.012;2022-07-23T15:49:06;32.70;68.40
18581;DHT22;9420;50.876;7.012;2022-07-23T15:51:34;33.60;64.70
18581;DHT22;9420;50.876;7.012;2022-07-23T15:54:01;32.60;65.30
18581;DHT22;9420;50.876;7.012;2022-07-23T15:56:28;32.80;65.90
18581;DHT22;9420;50.876;7.012;2022-07-23T15:58:55;31.60;66.70
18581;DHT22;9420;50.876;7.012;2022-07-23T16:01:22;30.90;69.50
18581;DHT22;9420;50.876;7.012;2022-07-23T16:03:50;31.50;70.50